sensor_id;sensor_type;location;lat;lon;timestamp;P1;durP1;ratioP1;P2;durP2;ratioP2
64684;SDS011;51109;47.414;18.954;2024-01-30T00:01:37;27.77;;;15.25;;
64684;SDS011;51109;47.414;18.954;2024-01-30T00:04:03;32.65;;;16.52;;
64684;SDS011;51109;47.414;18.954;2024-01-30T00:06:28;33.55;;;16.92;;
64684;SDS011;51109;47.414;18.954;2024-01-30T00:08:54;34.25;;;16.20;;
64684;SDS011;51109;47.414;18.954;2024-01-30T00:11:20;37.33;;;16.98;;
64684;SDS011;51109;47.414;18.954;2024-01-30T00:13:46;38.95;;;16.65;;
64684;SDS011;51109;47.414;18.954;2024-01-30T00:16:21;36.65;;;18.42;;
64684;SDS011;51109;47.414;18.954;2024-01-30T00:18:47;35.08;;;16.70;;
64684;SDS011;51109;47.414;18.954;2024-01-30T00:21:13;36.70;;;18.83;;
64684;SDS011;51109;47.414;18.954;2024-01-30T00:23:39;39.72;;;18.38;;
64684;SDS011;51109;47.414;18.954;2024-01-30T00:26:06;36.75;;;17.85;;
64684;SDS011;51109;47.414;18.954;2024-01-30T00:28:32;43.40;;;18.02;;
64684;SDS011;51109;47.414;18.954;2024-01-30T00:30:57;37.55;;;18.35;;
64684;SDS011;51109;47.414;18.954;2024-01-30T00:33:23;38.65;;;19.13;;
64684;SDS011;51109;47.414;18.954;2024-01-30T00:35:49;39.58;;;18.23;;
64684;SDS011;51109;47.414;18.954;2024-01-30T00:38:15;41.47;;;19.83;;
64684;SDS011;51109;47.414;18.954;2024-01-30T00:40:40;39.78;;;19.67;;
64684;SDS011;51109;47.414;18.954;2024-01-30T00:43:06;37.35;;;18.67;;
64684;SDS011;51109;47.414;18.954;2024-01-30T00:45:32;38.10;;;18.55;;
64684;SDS011;51109;47.414;18.954;2024-01-30T00:47:58;35.63;;;18.55;;
64684;SDS011;51109;47.414;18.954;2024-01-30T00:50:23;36.42;;;19.08;;
64684;SDS011;51109;47.414;18.954;2024-01-30T00:52:49;36.58;;;18.73;;
64684;SDS011;51109;47.414;18.954;2024-01-30T00:55:15;34.40;;;17.75;;
64684;SDS011;51109;47.414;18.954;2024-01-30T00:57:41;37.00;;;18.58;;
64684;SDS011;51109;47.414;18.954;2024-01-30T01:00:07;34.60;;;17.55;;
64684;SDS011;51109;47.414;18.954;2024-01-30T01:02:37;37.95;;;19.67;;
64684;SDS011;51109;47.414;18.954;2024-01-30T01:05:04;49.90;;;19.73;;
64684;SDS011;51109;47.414;18.954;2024-01-30T01:07:30;42.97;;;18.48;;
64684;SDS011;51109;47.414;18.954;2024-01-30T01:09:56;37.85;;;19.00;;
64684;SDS011;51109;47.414;18.954;2024-01-30T01:12:22;40.40;;;18.23;;
64684;SDS011;51109;47.414;18.954;2024-01-30T01:14:48;38.55;;;18.83;;
64684;SDS011;51109;47.414;18.954;2024-01-30T01:17:13;39.25;;;17.83;;
64684;SDS011;51109;47.414;18.954;2024-01-30T01:19:39;34.60;;;17.25;;
64684;SDS011;51109;47.414;18.954;2024-01-30T01:22:05;33.25;;;16.98;;
64684;SDS011;51109;47.414;18.954;2024-01-30T01:24:31;40.33;;;18.10;;
64684;SDS011;51109;47.414;18.954;2024-01-30T01:26:58;37.28;;;19.20;;
64684;SDS011;51109;47.414;18.954;2024-01-30T01:29:24;39.05;;;17.83;;
64684;SDS011;51109;47.414;18.954;2024-01-30T01:31:56;39.53;;;18.40;;
64684;SDS011;51109;47.414;18.954;2024-01-30T01:34:23;43.20;;;17.85;;
64684;SDS011;51109;47.414;18.954;2024-01-30T01:36:49;39.40;;;18.92;;
64684;SDS011;51109;47.414;18.954;2024-01-30T01:39:16;35.67;;;17.52;;
64684;SDS011;51109;47.414;18.954;2024-01-30T01:41:42;34.47;;;17.35;;
64684;SDS011;51109;47.414;18.954;2024-01-30T01:44:08;35.85;;;18.05;;
64684;SDS011;51109;47.414;18.954;2024-01-30T01:46:34;34.20;;;16.92;;
64684;SDS011;51109;47.414;18.954;2024-01-30T01:49:02;32.60;;;16.67;;
64684;SDS011;51109;47.414;18.954;2024-01-30T01:51:29;41.85;;;18.48;;
64684;SDS011;51109;47.414;18.954;2024-01-30T01:53:57;35.30;;;18.20;;
64684;SDS011;51109;47.414;18.954;2024-01-30T01:56:27;36.90;;;17.73;;
64684;SDS011;51109;47.414;18.954;2024-01-30T01:58:54;35.50;;;17.83;;
64684;SDS011;51109;47.414;18.954;2024-01-30T02:01:21;34.28;;;17.58;;
64684;SDS011;51109;47.414;18.954;2024-01-30T02:03:48;32.55;;;17.45;;
64684;SDS011;51109;47.414;18.954;2024-01-30T02:06:14;34.15;;;16.92;;
64684;SDS011;51109;47.414;18.954;2024-01-30T02:08:41;36.80;;;16.85;;
64684;SDS011;51109;47.414;18.954;2024-01-30T02:11:07;33.63;;;17.63;;
64684;SDS011;51109;47.414;18.954;2024-01-30T02:13:34;40.38;;;18.52;;
64684;SDS011;51109;47.414;18.954;2024-01-30T02:15:59;34.08;;;18.15;;
64684;SDS011;51109;47.414;18.954;2024-01-30T02:18:26;36.53;;;17.38;;
64684;SDS011;51109;47.414;18.954;2024-01-30T02:20:53;38.88;;;16.67;;
64684;SDS011;51109;47.414;18.954;2024-01-30T02:23:19;38.05;;;17.13;;
64684;SDS011;51109;47.414;18.954;2024-01-30T02:25:45;35.63;;;19.00;;
64684;SDS011;51109;47.414;18.954;2024-01-30T02:28:14;35.22;;;17.38;;
64684;SDS011;51109;47.414;18.954;2024-01-30T02:30:44;40.72;;;18.20;;
64684;SDS011;51109;47.414;18.954;2024-01-30T02:33:11;43.08;;;18.73;;
64684;SDS011;51109;47.414;18.954;2024-01-30T02:35:40;40.95;;;19.42;;
64684;SDS011;51109;47.414;18.954;2024-01-30T02:38:05;37.63;;;18.85;;
64684;SDS011;51109;47.414;18.954;2024-01-30T02:40:31;36.15;;;19.23;;
64684;SDS011;51109;47.414;18.954;2024-01-30T02:43:00;42.05;;;19.77;;
64684;SDS011;51109;47.414;18.954;2024-01-30T02:45:27;39.78;;;19.42;;
64684;SDS011;51109;47.414;18.954;2024-01-30T02:47:53;40.30;;;18.60;;
64684;SDS011;51109;47.414;18.954;2024-01-30T02:50:18;43.28;;;20.38;;
64684;SDS011;51109;47.414;18.954;2024-01-30T02:52:44;35.80;;;18.92;;
64684;SDS011;51109;47.414;18.954;2024-01-30T02:55:10;38.58;;;19.88;;
64684;SDS011;51109;47.414;18.954;2024-01-30T02:57:37;39.22;;;19.05;;
64684;SDS011;51109;47.414;18.954;2024-01-30T03:00:03;40.40;;;20.00;;
64684;SDS011;51109;47.414;18.954;2024-01-30T03:02:31;35.08;;;18.88;;
64684;SDS011;51109;47.414;18.954;2024-01-30T03:04:58;41.83;;;21.65;;
64684;SDS011;51109;47.414;18.954;2024-01-30T03:07:24;43.70;;;20.95;;
64684;SDS011;51109;47.414;18.954;2024-01-30T03:09:50;37.72;;;19.50;;
64684;SDS011;51109;47.414;18.954;2024-01-30T03:12:16;39.75;;;20.10;;
64684;SDS011;51109;47.414;18.954;2024-01-30T03:14:42;40.63;;;19.33;;
64684;SDS011;51109;47.414;18.954;2024-01-30T03:17:08;47.05;;;23.17;;
64684;SDS011;51109;47.414;18.954;2024-01-30T03:19:34;42.53;;;19.30;;
64684;SDS011;51109;47.414;18.954;2024-01-30T03:21:59;41.67;;;20.50;;
64684;SDS011;51109;47.414;18.954;2024-01-30T03:24:25;41.35;;;20.00;;
64684;SDS011;51109;47.414;18.954;2024-01-30T03:26:51;40.30;;;19.98;;
64684;SDS011;51109;47.414;18.954;2024-01-30T03:29:17;42.08;;;19.55;;
64684;SDS011;51109;47.414;18.954;2024-01-30T03:31:42;41.60;;;19.80;;
64684;SDS011;51109;47.414;18.954;2024-01-30T03:34:08;41.00;;;19.00;;
64684;SDS011;51109;47.414;18.954;2024-01-30T03:36:34;40.17;;;18.80;;
64684;SDS011;51109;47.414;18.954;2024-01-30T03:39:00;43.92;;;18.90;;
64684;SDS011;51109;47.414;18.954;2024-01-30T03:41:26;40.30;;;19.02;;
64684;SDS011;51109;47.414;18.954;2024-01-30T03:43:52;39.30;;;19.73;;
64684;SDS011;51109;47.414;18.954;2024-01-30T03:46:17;38.53;;;18.83;;
64684;SDS011;51109;47.414;18.954;2024-01-30T03:48:44;39.00;;;18.95;;
64684;SDS011;51109;47.414;18.954;2024-01-30T03:51:10;41.28;;;21.02;;
64684;SDS011;51109;47.414;18.954;2024-01-30T03:53:44;41.72;;;20.35;;
64684;SDS011;51109;47.414;18.954;2024-01-30T03:56:11;39.95;;;19.17;;
64684;SDS011;51109;47.414;18.954;2024-01-30T03:58:38;42.75;;;19.55;;
64684;SDS011;51109;47.414;18.954;2024-01-30T04:01:04;46.67;;;19.15;;
64684;SDS011;51109;47.414;18.954;2024-01-30T04:03:30;36.38;;;18.35;;
64684;SDS011;51109;47.414;18.954;2024-01-30T04:05:56;39.78;;;19.35;;
64684;SDS011;51109;47.414;18.954;2024-01-30T04:08:22;41.60;;;18.60;;
64684;SDS011;51109;47.414;18.954;2024-01-30T04:10:47;44.65;;;19.77;;
64684;SDS011;51109;47.414;18.954;2024-01-30T04:13:14;37.35;;;19.67;;
64684;SDS011;51109;47.414;18.954;2024-01-30T04:15:40;41.35;;;20.65;;
64684;SDS011;51109;47.414;18.954;2024-01-30T04:18:05;47.10;;;20.52;;
64684;SDS011;51109;47.414;18.954;2024-01-30T04:20:31;45.38;;;21.05;;
64684;SDS011;51109;47.414;18.954;2024-01-30T04:22:57;40.53;;;19.45;;
64684;SDS011;51109;47.414;18.954;2024-01-30T04:25:23;43.17;;;19.10;;
64684;SDS011;51109;47.414;18.954;2024-01-30T04:27:49;41.63;;;20.23;;
64684;SDS011;51109;47.414;18.954;2024-01-30T04:30:14;39.17;;;19.23;;
64684;SDS011;51109;47.414;18.954;2024-01-30T04:32:40;41.60;;;20.50;;
64684;SDS011;51109;47.414;18.954;2024-01-30T04:35:06;39.03;;;20.55;;
64684;SDS011;51109;47.414;18.954;2024-01-30T04:37:32;44.30;;;20.27;;
64684;SDS011;51109;47.414;18.954;2024-01-30T04:39:58;43.45;;;19.83;;
64684;SDS011;51109;47.414;18.954;2024-01-30T04:42:23;49.15;;;21.55;;
64684;SDS011;51109;47.414;18.954;2024-01-30T04:44:49;44.20;;;20.75;;
64684;SDS011;51109;47.414;18.954;2024-01-30T04:47:15;42.92;;;20.95;;
64684;SDS011;51109;47.414;18.954;2024-01-30T04:49:41;40.40;;;19.67;;
64684;SDS011;51109;47.414;18.954;2024-01-30T04:52:08;45.90;;;21.38;;
64684;SDS011;51109;47.414;18.954;2024-01-30T04:54:34;44.67;;;21.02;;
64684;SDS011;51109;47.414;18.954;2024-01-30T04:57:01;42.22;;;21.17;;
64684;SDS011;51109;47.414;18.954;2024-01-30T04:59:27;47.30;;;21.65;;
64684;SDS011;51109;47.414;18.954;2024-01-30T05:01:53;48.67;;;22.30;;
64684;SDS011;51109;47.414;18.954;2024-01-30T05:04:19;45.70;;;21.38;;
64684;SDS011;51109;47.414;18.954;2024-01-30T05:06:45;40.53;;;20.50;;
64684;SDS011;51109;47.414;18.954;2024-01-30T05:09:11;45.53;;;21.25;;
64684;SDS011;51109;47.414;18.954;2024-01-30T05:11:40;47.67;;;21.17;;
64684;SDS011;51109;47.414;18.954;2024-01-30T05:14:06;42.47;;;22.17;;
64684;SDS011;51109;47.414;18.954;2024-01-30T05:16:32;43.38;;;22.10;;
64684;SDS011;51109;47.414;18.954;2024-01-30T05:18:58;44.72;;;21.33;;
64684;SDS011;51109;47.414;18.954;2024-01-30T05:21:24;43.15;;;19.00;;
64684;SDS011;51109;47.414;18.954;2024-01-30T05:23:50;40.92;;;19.10;;
64684;SDS011;51109;47.414;18.954;2024-01-30T05:26:16;43.25;;;20.90;;
64684;SDS011;51109;47.414;18.954;2024-01-30T05:28:42;47.10;;;20.40;;
64684;SDS011;51109;47.414;18.954;2024-01-30T05:31:09;44.97;;;20.30;;
64684;SDS011;51109;47.414;18.954;2024-01-30T05:33:36;44.50;;;19.70;;
64684;SDS011;51109;47.414;18.954;2024-01-30T05:36:02;42.38;;;19.52;;
64684;SDS011;51109;47.414;18.954;2024-01-30T05:38:28;34.75;;;18.58;;
64684;SDS011;51109;47.414;18.954;2024-01-30T05:40:54;38.50;;;18.45;;
64684;SDS011;51109;47.414;18.954;2024-01-30T05:43:20;43.63;;;20.20;;
64684;SDS011;51109;47.414;18.954;2024-01-30T05:45:46;43.63;;;18.77;;
64684;SDS011;51109;47.414;18.954;2024-01-30T05:48:12;38.22;;;19.13;;
64684;SDS011;51109;47.414;18.954;2024-01-30T05:50:38;43.13;;;20.30;;
64684;SDS011;51109;47.414;18.954;2024-01-30T05:53:03;43.10;;;20.13;;
64684;SDS011;51109;47.414;18.954;2024-01-30T05:55:29;37.38;;;19.75;;
64684;SDS011;51109;47.414;18.954;2024-01-30T05:57:55;43.22;;;21.40;;
64684;SDS011;51109;47.414;18.954;2024-01-30T06:00:21;49.30;;;22.35;;
64684;SDS011;51109;47.414;18.954;2024-01-30T06:02:46;48.95;;;23.13;;
64684;SDS011;51109;47.414;18.954;2024-01-30T06:05:12;46.55;;;23.67;;
64684;SDS011;51109;47.414;18.954;2024-01-30T06:07:38;45.28;;;22.42;;
64684;SDS011;51109;47.414;18.954;2024-01-30T06:10:04;44.50;;;22.63;;
64684;SDS011;51109;47.414;18.954;2024-01-30T06:12:31;48.15;;;22.80;;
64684;SDS011;51109;47.414;18.954;2024-01-30T06:14:57;53.20;;;24.88;;
64684;SDS011;51109;47.414;18.954;2024-01-30T06:17:23;56.05;;;25.92;;
64684;SDS011;51109;47.414;18.954;2024-01-30T06:19:49;57.08;;;26.80;;
64684;SDS011;51109;47.414;18.954;2024-01-30T06:22:15;59.05;;;29.08;;
64684;SDS011;51109;47.414;18.954;2024-01-30T06:24:41;61.60;;;28.75;;
64684;SDS011;51109;47.414;18.954;2024-01-30T06:27:07;62.53;;;28.60;;
64684;SDS011;51109;47.414;18.954;2024-01-30T06:29:33;68.60;;;32.65;;
64684;SDS011;51109;47.414;18.954;2024-01-30T06:31:59;64.35;;;30.05;;
64684;SDS011;51109;47.414;18.954;2024-01-30T06:34:24;65.20;;;30.13;;
64684;SDS011;51109;47.414;18.954;2024-01-30T06:36:51;54.63;;;27.25;;
64684;SDS011;51109;47.414;18.954;2024-01-30T06:39:17;52.53;;;25.85;;
64684;SDS011;51109;47.414;18.954;2024-01-30T06:41:43;51.08;;;24.52;;
64684;SDS011;51109;47.414;18.954;2024-01-30T06:44:11;43.83;;;22.02;;
64684;SDS011;51109;47.414;18.954;2024-01-30T06:46:38;50.25;;;23.45;;
64684;SDS011;51109;47.414;18.954;2024-01-30T06:49:04;52.95;;;22.50;;
64684;SDS011;51109;47.414;18.954;2024-01-30T06:51:30;52.30;;;23.75;;
64684;SDS011;51109;47.414;18.954;2024-01-30T06:53:56;50.55;;;23.40;;
64684;SDS011;51109;47.414;18.954;2024-01-30T06:56:22;43.88;;;21.67;;
64684;SDS011;51109;47.414;18.954;2024-01-30T06:58:48;46.72;;;21.60;;
64684;SDS011;51109;47.414;18.954;2024-01-30T07:01:14;47.80;;;22.85;;
64684;SDS011;51109;47.414;18.954;2024-01-30T07:03:40;44.85;;;22.23;;
64684;SDS011;51109;47.414;18.954;2024-01-30T07:06:06;41.67;;;20.65;;
64684;SDS011;51109;47.414;18.954;2024-01-30T07:08:32;41.35;;;20.88;;
64684;SDS011;51109;47.414;18.954;2024-01-30T07:10:57;40.30;;;20.33;;
64684;SDS011;51109;47.414;18.954;2024-01-30T07:13:23;44.97;;;22.95;;
64684;SDS011;51109;47.414;18.954;2024-01-30T07:15:49;45.22;;;23.08;;
64684;SDS011;51109;47.414;18.954;2024-01-30T07:18:16;46.42;;;22.50;;
64684;SDS011;51109;47.414;18.954;2024-01-30T07:20:41;43.28;;;21.77;;
64684;SDS011;51109;47.414;18.954;2024-01-30T07:23:14;48.30;;;22.27;;
64684;SDS011;51109;47.414;18.954;2024-01-30T07:25:42;39.10;;;22.27;;
64684;SDS011;51109;47.414;18.954;2024-01-30T07:28:09;48.17;;;22.83;;
64684;SDS011;51109;47.414;18.954;2024-01-30T07:30:36;44.58;;;22.80;;
64684;SDS011;51109;47.414;18.954;2024-01-30T07:33:02;49.72;;;24.02;;
64684;SDS011;51109;47.414;18.954;2024-01-30T07:35:28;48.28;;;22.90;;
64684;SDS011;51109;47.414;18.954;2024-01-30T07:37:54;48.25;;;21.27;;
64684;SDS011;51109;47.414;18.954;2024-01-30T07:40:19;49.75;;;23.63;;
64684;SDS011;51109;47.414;18.954;2024-01-30T07:42:45;47.00;;;22.65;;
64684;SDS011;51109;47.414;18.954;2024-01-30T07:45:11;43.42;;;23.10;;
64684;SDS011;51109;47.414;18.954;2024-01-30T07:47:37;48.10;;;22.42;;
64684;SDS011;51109;47.414;18.954;2024-01-30T07:50:03;48.38;;;23.55;;
64684;SDS011;51109;47.414;18.954;2024-01-30T07:52:29;45.60;;;23.13;;
64684;SDS011;51109;47.414;18.954;2024-01-30T07:54:55;54.95;;;25.15;;
64684;SDS011;51109;47.414;18.954;2024-01-30T07:57:39;45.45;;;21.50;;
64684;SDS011;51109;47.414;18.954;2024-01-30T08:00:05;40.00;;;21.45;;
64684;SDS011;51109;47.414;18.954;2024-01-30T08:02:32;40.35;;;21.30;;
64684;SDS011;51109;47.414;18.954;2024-01-30T08:04:58;41.00;;;21.33;;
64684;SDS011;51109;47.414;18.954;2024-01-30T08:07:24;42.25;;;21.98;;
64684;SDS011;51109;47.414;18.954;2024-01-30T08:09:50;48.00;;;23.73;;
64684;SDS011;51109;47.414;18.954;2024-01-30T08:12:15;42.15;;;21.33;;
64684;SDS011;51109;47.414;18.954;2024-01-30T08:14:42;44.67;;;21.00;;
64684;SDS011;51109;47.414;18.954;2024-01-30T08:17:08;41.88;;;21.05;;
64684;SDS011;51109;47.414;18.954;2024-01-30T08:19:33;41.58;;;20.27;;
64684;SDS011;51109;47.414;18.954;2024-01-30T08:21:59;45.78;;;21.58;;
64684;SDS011;51109;47.414;18.954;2024-01-30T08:24:25;45.75;;;21.77;;
64684;SDS011;51109;47.414;18.954;2024-01-30T08:26:51;45.15;;;21.58;;
64684;SDS011;51109;47.414;18.954;2024-01-30T08:29:17;42.08;;;21.92;;
64684;SDS011;51109;47.414;18.954;2024-01-30T08:31:42;45.40;;;22.23;;
64684;SDS011;51109;47.414;18.954;2024-01-30T08:34:09;49.03;;;23.15;;
64684;SDS011;51109;47.414;18.954;2024-01-30T08:36:35;47.55;;;22.75;;
64684;SDS011;51109;47.414;18.954;2024-01-30T08:39:01;52.30;;;23.50;;
64684;SDS011;51109;47.414;18.954;2024-01-30T08:41:28;49.75;;;25.13;;
64684;SDS011;51109;47.414;18.954;2024-01-30T08:43:54;49.08;;;24.30;;
64684;SDS011;51109;47.414;18.954;2024-01-30T08:46:19;48.95;;;23.95;;
64684;SDS011;51109;47.414;18.954;2024-01-30T08:48:46;50.45;;;26.40;;
64684;SDS011;51109;47.414;18.954;2024-01-30T08:51:12;55.28;;;25.17;;
64684;SDS011;51109;47.414;18.954;2024-01-30T08:53:39;54.67;;;25.73;;
64684;SDS011;51109;47.414;18.954;2024-01-30T08:56:05;59.15;;;25.63;;
64684;SDS011;51109;47.414;18.954;2024-01-30T08:58:31;54.75;;;25.40;;
64684;SDS011;51109;47.414;18.954;2024-01-30T09:00:58;51.90;;;24.42;;
64684;SDS011;51109;47.414;18.954;2024-01-30T09:03:24;47.35;;;22.33;;
64684;SDS011;51109;47.414;18.954;2024-01-30T09:05:49;44.58;;;23.00;;
64684;SDS011;51109;47.414;18.954;2024-01-30T09:08:15;52.33;;;25.30;;
64684;SDS011;51109;47.414;18.954;2024-01-30T09:10:41;49.75;;;23.70;;
64684;SDS011;51109;47.414;18.954;2024-01-30T09:13:07;43.38;;;22.80;;
64684;SDS011;51109;47.414;18.954;2024-01-30T09:15:33;45.63;;;22.90;;
64684;SDS011;51109;47.414;18.954;2024-01-30T09:17:59;47.05;;;21.83;;
64684;SDS011;51109;47.414;18.954;2024-01-30T09:20:25;52.58;;;27.25;;
64684;SDS011;51109;47.414;18.954;2024-01-30T09:22:50;48.88;;;25.15;;
64684;SDS011;51109;47.414;18.954;2024-01-30T09:25:16;52.65;;;26.25;;
64684;SDS011;51109;47.414;18.954;2024-01-30T09:27:43;37.97;;;19.85;;
64684;SDS011;51109;47.414;18.954;2024-01-30T09:30:09;41.15;;;22.65;;
64684;SDS011;51109;47.414;18.954;2024-01-30T09:32:35;45.33;;;24.05;;
64684;SDS011;51109;47.414;18.954;2024-01-30T09:35:01;34.63;;;19.40;;
64684;SDS011;51109;47.414;18.954;2024-01-30T09:37:27;39.30;;;18.77;;
64684;SDS011;51109;47.414;18.954;2024-01-30T09:39:53;35.20;;;20.38;;
64684;SDS011;51109;47.414;18.954;2024-01-30T09:42:26;39.88;;;19.77;;
64684;SDS011;51109;47.414;18.954;2024-01-30T09:45:02;35.58;;;19.95;;
64684;SDS011;51109;47.414;18.954;2024-01-30T09:47:32;41.35;;;20.25;;
64684;SDS011;51109;47.414;18.954;2024-01-30T09:50:08;38.67;;;20.48;;
64684;SDS011;51109;47.414;18.954;2024-01-30T09:52:34;44.10;;;23.25;;
64684;SDS011;51109;47.414;18.954;2024-01-30T09:55:00;41.15;;;23.45;;
64684;SDS011;51109;47.414;18.954;2024-01-30T09:57:27;41.10;;;20.65;;
64684;SDS011;51109;47.414;18.954;2024-01-30T09:59:53;37.80;;;21.17;;
64684;SDS011;51109;47.414;18.954;2024-01-30T10:02:22;41.88;;;22.17;;
64684;SDS011;51109;47.414;18.954;2024-01-30T10:04:51;38.17;;;21.33;;
64684;SDS011;51109;47.414;18.954;2024-01-30T10:07:18;47.00;;;24.65;;
64684;SDS011;51109;47.414;18.954;2024-01-30T10:09:44;40.70;;;21.98;;
64684;SDS011;51109;47.414;18.954;2024-01-30T10:12:11;40.70;;;21.60;;
64684;SDS011;51109;47.414;18.954;2024-01-30T10:14:37;43.05;;;24.48;;
64684;SDS011;51109;47.414;18.954;2024-01-30T10:17:08;44.50;;;23.17;;
64684;SDS011;51109;47.414;18.954;2024-01-30T10:19:35;46.42;;;24.67;;
64684;SDS011;51109;47.414;18.954;2024-01-30T10:22:05;46.42;;;22.73;;
64684;SDS011;51109;47.414;18.954;2024-01-30T10:24:33;48.50;;;25.52;;
64684;SDS011;51109;47.414;18.954;2024-01-30T10:27:01;41.22;;;23.52;;
64684;SDS011;51109;47.414;18.954;2024-01-30T10:29:27;44.13;;;23.77;;
64684;SDS011;51109;47.414;18.954;2024-01-30T10:31:57;47.70;;;25.25;;
64684;SDS011;51109;47.414;18.954;2024-01-30T10:34:24;42.25;;;25.23;;
64684;SDS011;51109;47.414;18.954;2024-01-30T10:36:50;51.53;;;28.50;;
64684;SDS011;51109;47.414;18.954;2024-01-30T10:39:17;52.53;;;28.23;;
64684;SDS011;51109;47.414;18.954;2024-01-30T10:41:45;53.05;;;28.48;;
64684;SDS011;51109;47.414;18.954;2024-01-30T10:44:14;48.05;;;27.15;;
64684;SDS011;51109;47.414;18.954;2024-01-30T10:46:45;53.40;;;26.70;;
64684;SDS011;51109;47.414;18.954;2024-01-30T10:51:44;41.10;;;22.85;;
64684;SDS011;51109;47.414;18.954;2024-01-30T10:54:12;47.70;;;25.48;;
64684;SDS011;51109;47.414;18.954;2024-01-30T10:56:39;44.30;;;22.20;;
64684;SDS011;51109;47.414;18.954;2024-01-30T10:59:05;40.85;;;22.08;;
64684;SDS011;51109;47.414;18.954;2024-01-30T11:01:31;39.17;;;21.50;;
64684;SDS011;51109;47.414;18.954;2024-01-30T11:03:58;35.40;;;20.88;;
64684;SDS011;51109;47.414;18.954;2024-01-30T11:06:24;37.58;;;20.15;;
64684;SDS011;51109;47.414;18.954;2024-01-30T11:09:00;42.13;;;22.92;;
64684;SDS011;51109;47.414;18.954;2024-01-30T11:11:47;39.58;;;21.45;;
64684;SDS011;51109;47.414;18.954;2024-01-30T11:14:22;40.38;;;20.70;;
64684;SDS011;51109;47.414;18.954;2024-01-30T11:16:52;36.40;;;19.98;;
64684;SDS011;51109;47.414;18.954;2024-01-30T11:19:30;36.38;;;18.77;;
64684;SDS011;51109;47.414;18.954;2024-01-30T11:21:57;36.35;;;20.90;;
64684;SDS011;51109;47.414;18.954;2024-01-30T11:24:23;32.55;;;19.63;;
64684;SDS011;51109;47.414;18.954;2024-01-30T11:26:49;34.33;;;18.80;;
64684;SDS011;51109;47.414;18.954;2024-01-30T11:29:24;33.10;;;18.55;;
64684;SDS011;51109;47.414;18.954;2024-01-30T11:31:54;33.20;;;18.20;;
64684;SDS011;51109;47.414;18.954;2024-01-30T11:34:20;30.27;;;18.45;;
64684;SDS011;51109;47.414;18.954;2024-01-30T11:36:57;37.03;;;19.13;;
64684;SDS011;51109;47.414;18.954;2024-01-30T11:39:24;34.13;;;19.35;;
64684;SDS011;51109;47.414;18.954;2024-01-30T11:41:51;38.05;;;20.55;;
64684;SDS011;51109;47.414;18.954;2024-01-30T11:44:24;36.75;;;19.30;;
64684;SDS011;51109;47.414;18.954;2024-01-30T11:46:51;29.13;;;17.48;;
64684;SDS011;51109;47.414;18.954;2024-01-30T11:49:17;31.42;;;18.27;;
64684;SDS011;51109;47.414;18.954;2024-01-30T11:51:47;31.02;;;17.02;;
64684;SDS011;51109;47.414;18.954;2024-01-30T11:54:16;33.65;;;18.63;;
64684;SDS011;51109;47.414;18.954;2024-01-30T11:56:42;33.92;;;19.27;;
64684;SDS011;51109;47.414;18.954;2024-01-30T11:59:08;33.13;;;19.58;;
64684;SDS011;51109;47.414;18.954;2024-01-30T12:01:34;36.25;;;19.67;;
64684;SDS011;51109;47.414;18.954;2024-01-30T12:04:01;29.90;;;18.65;;
64684;SDS011;51109;47.414;18.954;2024-01-30T12:06:28;29.25;;;18.65;;
64684;SDS011;51109;47.414;18.954;2024-01-30T12:08:58;35.00;;;18.83;;
64684;SDS011;51109;47.414;18.954;2024-01-30T12:11:25;28.45;;;18.15;;
64684;SDS011;51109;47.414;18.954;2024-01-30T12:13:55;28.77;;;18.08;;
64684;SDS011;51109;47.414;18.954;2024-01-30T12:16:22;32.80;;;18.83;;
64684;SDS011;51109;47.414;18.954;2024-01-30T12:18:48;28.33;;;17.23;;
64684;SDS011;51109;47.414;18.954;2024-01-30T12:21:17;27.83;;;15.45;;
64684;SDS011;51109;47.414;18.954;2024-01-30T12:23:45;32.25;;;18.45;;
64684;SDS011;51109;47.414;18.954;2024-01-30T12:26:12;31.05;;;17.42;;
64684;SDS011;51109;47.414;18.954;2024-01-30T12:28:47;25.90;;;16.42;;
64684;SDS011;51109;47.414;18.954;2024-01-30T12:31:14;25.35;;;15.93;;
64684;SDS011;51109;47.414;18.954;2024-01-30T12:33:40;23.17;;;14.35;;
64684;SDS011;51109;47.414;18.954;2024-01-30T12:36:06;25.85;;;14.75;;
64684;SDS011;51109;47.414;18.954;2024-01-30T12:38:32;21.95;;;13.00;;
64684;SDS011;51109;47.414;18.954;2024-01-30T12:40:58;15.75;;;9.80;;
64684;SDS011;51109;47.414;18.954;2024-01-30T12:43:24;25.35;;;14.55;;
64684;SDS011;51109;47.414;18.954;2024-01-30T12:45:52;21.48;;;13.00;;
64684;SDS011;51109;47.414;18.954;2024-01-30T12:48:18;17.40;;;11.10;;
64684;SDS011;51109;47.414;18.954;2024-01-30T12:50:44;16.40;;;10.77;;
64684;SDS011;51109;47.414;18.954;2024-01-30T12:53:10;16.73;;;10.45;;
64684;SDS011;51109;47.414;18.954;2024-01-30T12:55:38;16.27;;;10.15;;
64684;SDS011;51109;47.414;18.954;2024-01-30T12:58:03;12.05;;;8.75;;
64684;SDS011;51109;47.414;18.954;2024-01-30T13:00:29;12.95;;;8.10;;
64684;SDS011;51109;47.414;18.954;2024-01-30T13:02:55;14.60;;;8.30;;
64684;SDS011;51109;47.414;18.954;2024-01-30T13:05:21;17.70;;;10.15;;
64684;SDS011;51109;47.414;18.954;2024-01-30T13:07:47;16.90;;;10.15;;
64684;SDS011;51109;47.414;18.954;2024-01-30T13:10:13;16.50;;;10.68;;
64684;SDS011;51109;47.414;18.954;2024-01-30T13:12:39;19.67;;;10.38;;
64684;SDS011;51109;47.414;18.954;2024-01-30T13:15:05;16.02;;;10.45;;
64684;SDS011;51109;47.414;18.954;2024-01-30T13:17:31;15.45;;;10.27;;
64684;SDS011;51109;47.414;18.954;2024-01-30T13:19:58;18.17;;;10.82;;
64684;SDS011;51109;47.414;18.954;2024-01-30T13:22:24;18.45;;;10.32;;
64684;SDS011;51109;47.414;18.954;2024-01-30T13:24:50;19.73;;;11.65;;
64684;SDS011;51109;47.414;18.954;2024-01-30T13:27:16;14.45;;;10.98;;
64684;SDS011;51109;47.414;18.954;2024-01-30T13:29:42;19.98;;;11.68;;
64684;SDS011;51109;47.414;18.954;2024-01-30T13:32:08;16.88;;;11.23;;
64684;SDS011;51109;47.414;18.954;2024-01-30T13:34:34;20.50;;;11.25;;
64684;SDS011;51109;47.414;18.954;2024-01-30T13:37:00;21.45;;;11.45;;
64684;SDS011;51109;47.414;18.954;2024-01-30T13:39:26;20.00;;;11.48;;
64684;SDS011;51109;47.414;18.954;2024-01-30T13:41:51;23.20;;;13.10;;
64684;SDS011;51109;47.414;18.954;2024-01-30T13:44:17;20.92;;;12.20;;
64684;SDS011;51109;47.414;18.954;2024-01-30T13:46:44;18.58;;;11.93;;
64684;SDS011;51109;47.414;18.954;2024-01-30T13:49:10;19.45;;;11.75;;
64684;SDS011;51109;47.414;18.954;2024-01-30T13:51:36;22.70;;;12.40;;
64684;SDS011;51109;47.414;18.954;2024-01-30T13:54:01;20.45;;;11.27;;
64684;SDS011;51109;47.414;18.954;2024-01-30T13:56:27;23.73;;;12.07;;
64684;SDS011;51109;47.414;18.954;2024-01-30T13:58:53;18.25;;;11.38;;
64684;SDS011;51109;47.414;18.954;2024-01-30T14:01:20;20.13;;;11.18;;
64684;SDS011;51109;47.414;18.954;2024-01-30T14:03:46;19.67;;;11.40;;
64684;SDS011;51109;47.414;18.954;2024-01-30T14:06:12;19.38;;;12.38;;
64684;SDS011;51109;47.414;18.954;2024-01-30T14:08:38;20.08;;;11.77;;